JM-0006 weather

Port Esquivel Airstrip
Saint Catherine, Jamaica

Public forecast

Using degrees Celsius for public forecast. Weather courtesy of forecast.io.

Closest aviation weather report (METAR) to Port Esquivel Airstrip

Closest report is Norman Manley International Airport, 20.1 nm (37.2 km) E. Retrieved 2020/04/10 05:00 UTC (1 minute ago):

MKJP 100500Z 32007KT 9999 FEW024 27/23 Q1013

Closest aviation forecast (TAF) to Port Esquivel Airstrip

Closest forecast is Norman Manley International Airport, 20.1 nm (37.2 km) E. Retrieved 2020-04-10 00:17 UTC (5 hours ago):

TAF MKJP 092315Z 1000/1024 30005KT 9999 FEW024 BECMG 1003/1005 35004KT BECMG 1015/1017 18010KT